sensor_id;sensor_type;location;lat;lon;timestamp;pressure;altitude;pressure_sealevel;temperature;humidity
8039;BME280;4062;49.844;8.120;2022-08-03T00:00:09;99347.75;;;20.58;55.17
8039;BME280;4062;49.844;8.120;2022-08-03T00:02:13;99351.31;;;20.59;55.40
8039;BME280;4062;49.844;8.120;2022-08-03T00:04:14;99346.91;;;20.58;55.07
8039;BME280;4062;49.844;8.120;2022-08-03T00:06:15;99346.78;;;20.59;55.15
8039;BME280;4062;49.844;8.120;2022-08-03T00:08:16;99348.63;;;20.59;55.30
8039;BME280;4062;49.844;8.120;2022-08-03T00:10:16;99350.44;;;20.58;55.18
8039;BME280;4062;49.844;8.120;2022-08-03T00:12:17;99357.53;;;20.59;54.90
8039;BME280;4062;49.844;8.120;2022-08-03T00:14:18;99347.75;;;20.58;55.01
8039;BME280;4062;49.844;8.120;2022-08-03T00:16:18;99357.53;;;20.59;55.36
8039;BME280;4062;49.844;8.120;2022-08-03T00:18:19;99348.63;;;20.59;55.36
8039;BME280;4062;49.844;8.120;2022-08-03T00:20:23;99350.44;;;20.58;55.37
8039;BME280;4062;49.844;8.120;2022-08-03T00:22:24;99348.63;;;20.59;55.19
8039;BME280;4062;49.844;8.120;2022-08-03T00:24:24;99338.84;;;20.58;55.17
8039;BME280;4062;49.844;8.120;2022-08-03T00:26:25;99349.47;;;20.59;55.15
8039;BME280;4062;49.844;8.120;2022-08-03T00:28:26;99337.91;;;20.59;55.21
8039;BME280;4062;49.844;8.120;2022-08-03T00:30:27;99337.03;;;20.58;55.08
8039;BME280;4062;49.844;8.120;2022-08-03T00:32:28;99341.53;;;20.58;55.32
8039;BME280;4062;49.844;8.120;2022-08-03T00:34:28;99341.44;;;20.59;55.31
8039;BME280;4062;49.844;8.120;2022-08-03T00:36:30;99342.38;;;20.58;55.16
8039;BME280;4062;49.844;8.120;2022-08-03T00:38:31;99339.69;;;20.58;54.89
8039;BME280;4062;49.844;8.120;2022-08-03T00:40:32;99345.94;;;20.59;55.16
8039;BME280;4062;49.844;8.120;2022-08-03T00:42:33;99342.38;;;20.58;55.05
8039;BME280;4062;49.844;8.120;2022-08-03T00:44:41;99337.03;;;20.58;54.87
8039;BME280;4062;49.844;8.120;2022-08-03T00:46:42;99328.97;;;20.58;55.13
8039;BME280;4062;49.844;8.120;2022-08-03T00:48:43;99337.03;;;20.58;55.39
8039;BME280;4062;49.844;8.120;2022-08-03T00:50:44;99328.97;;;20.58;55.13
8039;BME280;4062;49.844;8.120;2022-08-03T00:52:45;99331.66;;;20.58;55.01
8039;BME280;4062;49.844;8.120;2022-08-03T00:54:46;99329.09;;;20.57;54.90
8039;BME280;4062;49.844;8.120;2022-08-03T00:56:48;99330.81;;;20.58;55.25
8039;BME280;4062;49.844;8.120;2022-08-03T00:58:49;99334.34;;;20.58;55.17
8039;BME280;4062;49.844;8.120;2022-08-03T01:00:51;99324.56;;;20.57;54.94
8039;BME280;4062;49.844;8.120;2022-08-03T01:02:52;99322.75;;;20.58;55.08
8039;BME280;4062;49.844;8.120;2022-08-03T01:04:54;99334.34;;;20.58;55.37
8039;BME280;4062;49.844;8.120;2022-08-03T01:13:18;99323.59;;;20.58;55.13
8039;BME280;4062;49.844;8.120;2022-08-03T01:16:07;99323.59;;;20.58;55.00
8039;BME280;4062;49.844;8.120;2022-08-03T01:18:17;99327.16;;;20.59;55.21
8039;BME280;4062;49.844;8.120;2022-08-03T01:20:21;99326.41;;;20.57;55.13
8039;BME280;4062;49.844;8.120;2022-08-03T01:23:00;99322.75;;;20.58;55.21
8039;BME280;4062;49.844;8.120;2022-08-03T01:25:33;99320.91;;;20.58;54.75
8039;BME280;4062;49.844;8.120;2022-08-03T01:27:57;99322.75;;;20.58;55.37
8039;BME280;4062;49.844;8.120;2022-08-03T01:30:06;99316.50;;;20.57;55.07
8039;BME280;4062;49.844;8.120;2022-08-03T01:32:14;99325.44;;;20.58;55.14
8039;BME280;4062;49.844;8.120;2022-08-03T01:34:17;99322.75;;;20.58;55.11
8039;BME280;4062;49.844;8.120;2022-08-03T01:36:25;99320.91;;;20.58;54.97
8039;BME280;4062;49.844;8.120;2022-08-03T01:38:33;99323.59;;;20.58;55.06
8039;BME280;4062;49.844;8.120;2022-08-03T01:40:36;99326.28;;;20.58;55.18
8039;BME280;4062;49.844;8.120;2022-08-03T01:42:40;99322.75;;;20.58;54.91
8039;BME280;4062;49.844;8.120;2022-08-03T01:44:43;99322.75;;;20.58;54.92
8039;BME280;4062;49.844;8.120;2022-08-03T01:46:45;99317.38;;;20.58;55.08
8039;BME280;4062;49.844;8.120;2022-08-03T01:48:48;99323.59;;;20.58;55.39
8039;BME280;4062;49.844;8.120;2022-08-03T01:50:50;99321.03;;;20.57;55.18
8039;BME280;4062;49.844;8.120;2022-08-03T01:52:54;99318.22;;;20.58;55.04
8039;BME280;4062;49.844;8.120;2022-08-03T01:54:56;99318.22;;;20.58;55.17
8039;BME280;4062;49.844;8.120;2022-08-03T01:56:58;99320.06;;;20.58;55.27
8039;BME280;4062;49.844;8.120;2022-08-03T01:59:00;99318.34;;;20.57;55.07
8039;BME280;4062;49.844;8.120;2022-08-03T02:01:04;99319.19;;;20.57;55.30
8039;BME280;4062;49.844;8.120;2022-08-03T02:03:05;99326.28;;;20.58;55.06
8039;BME280;4062;49.844;8.120;2022-08-03T02:05:09;99320.06;;;20.58;55.20
8039;BME280;4062;49.844;8.120;2022-08-03T02:07:11;99326.28;;;20.58;55.18
8039;BME280;4062;49.844;8.120;2022-08-03T02:09:14;99315.66;;;20.57;55.39
8039;BME280;4062;49.844;8.120;2022-08-03T02:11:16;99322.75;;;20.58;55.01
8039;BME280;4062;49.844;8.120;2022-08-03T02:13:18;99307.59;;;20.57;55.13
8039;BME280;4062;49.844;8.120;2022-08-03T02:15:21;99315.66;;;20.57;55.24
8039;BME280;4062;49.844;8.120;2022-08-03T02:17:25;99312.97;;;20.57;55.29
8039;BME280;4062;49.844;8.120;2022-08-03T02:19:27;99324.56;;;20.57;55.26
8039;BME280;4062;49.844;8.120;2022-08-03T02:21:29;99320.06;;;20.58;55.11
8039;BME280;4062;49.844;8.120;2022-08-03T02:23:31;99315.66;;;20.57;55.14
8039;BME280;4062;49.844;8.120;2022-08-03T02:25:37;99314.81;;;20.56;55.11
8039;BME280;4062;49.844;8.120;2022-08-03T02:28:08;99312.00;;;20.58;55.33
8039;BME280;4062;49.844;8.120;2022-08-03T02:30:11;99313.81;;;20.57;54.92
8039;BME280;4062;49.844;8.120;2022-08-03T02:32:19;99312.97;;;20.57;55.08
8039;BME280;4062;49.844;8.120;2022-08-03T02:34:22;99301.41;;;20.56;54.98
8039;BME280;4062;49.844;8.120;2022-08-03T02:36:29;99312.97;;;20.57;55.24
8039;BME280;4062;49.844;8.120;2022-08-03T02:38:38;99311.13;;;20.57;55.26
8039;BME280;4062;49.844;8.120;2022-08-03T02:40:42;99314.69;;;20.58;55.04
8039;BME280;4062;49.844;8.120;2022-08-03T02:42:46;99314.81;;;20.56;55.02
8039;BME280;4062;49.844;8.120;2022-08-03T02:44:49;99310.28;;;20.57;55.21
8039;BME280;4062;49.844;8.120;2022-08-03T02:46:58;99299.56;;;20.57;55.19
8039;BME280;4062;49.844;8.120;2022-08-03T02:49:01;99301.41;;;20.56;55.11
8039;BME280;4062;49.844;8.120;2022-08-03T02:51:03;99304.94;;;20.57;54.99
8039;BME280;4062;49.844;8.120;2022-08-03T02:53:05;99298.72;;;20.56;54.83
8039;BME280;4062;49.844;8.120;2022-08-03T02:55:09;99302.25;;;20.57;54.82
8039;BME280;4062;49.844;8.120;2022-08-03T02:57:11;99304.94;;;20.57;55.36
8039;BME280;4062;49.844;8.120;2022-08-03T02:59:14;99302.25;;;20.57;55.15
8039;BME280;4062;49.844;8.120;2022-08-03T03:01:25;99298.59;;;20.58;55.38
8039;BME280;4062;49.844;8.120;2022-08-03T03:03:27;99293.34;;;20.56;55.02
8039;BME280;4062;49.844;8.120;2022-08-03T03:05:28;99304.06;;;20.56;54.93
8039;BME280;4062;49.844;8.120;2022-08-03T03:07:32;99301.28;;;20.58;55.25
8039;BME280;4062;49.844;8.120;2022-08-03T03:09:33;99307.50;;;20.58;55.01
8039;BME280;4062;49.844;8.120;2022-08-03T03:11:37;99304.94;;;20.57;55.15
8039;BME280;4062;49.844;8.120;2022-08-03T03:13:42;99310.19;;;20.58;54.97
8039;BME280;4062;49.844;8.120;2022-08-03T03:15:44;99303.19;;;20.56;55.09
8039;BME280;4062;49.844;8.120;2022-08-03T03:17:49;99309.34;;;20.58;54.87
8039;BME280;4062;49.844;8.120;2022-08-03T03:19:51;99298.72;;;20.56;55.11
8039;BME280;4062;49.844;8.120;2022-08-03T03:21:53;99302.34;;;20.55;55.31
8039;BME280;4062;49.844;8.120;2022-08-03T03:23:55;99304.06;;;20.56;54.98
8039;BME280;4062;49.844;8.120;2022-08-03T03:25:56;99302.25;;;20.57;55.15
8039;BME280;4062;49.844;8.120;2022-08-03T03:28:01;99301.41;;;20.56;54.99
8039;BME280;4062;49.844;8.120;2022-08-03T03:30:03;99304.06;;;20.56;55.15
8039;BME280;4062;49.844;8.120;2022-08-03T03:32:05;99300.41;;;20.57;55.40
8039;BME280;4062;49.844;8.120;2022-08-03T03:34:06;99298.72;;;20.56;55.11
8039;BME280;4062;49.844;8.120;2022-08-03T03:36:06;99298.72;;;20.56;55.14
8039;BME280;4062;49.844;8.120;2022-08-03T03:38:08;99303.19;;;20.56;55.09
8039;BME280;4062;49.844;8.120;2022-08-03T03:40:09;99304.06;;;20.56;55.23
8039;BME280;4062;49.844;8.120;2022-08-03T03:42:10;99301.41;;;20.56;55.19
8039;BME280;4062;49.844;8.120;2022-08-03T03:44:11;99298.72;;;20.56;55.02
8039;BME280;4062;49.844;8.120;2022-08-03T03:46:12;99302.25;;;20.57;54.90
8039;BME280;4062;49.844;8.120;2022-08-03T03:48:14;99296.03;;;20.56;55.05
8039;BME280;4062;49.844;8.120;2022-08-03T03:50:17;99298.72;;;20.56;55.26
8039;BME280;4062;49.844;8.120;2022-08-03T03:52:18;99304.06;;;20.56;55.44
8039;BME280;4062;49.844;8.120;2022-08-03T03:54:20;99303.19;;;20.56;55.36
8039;BME280;4062;49.844;8.120;2022-08-03T03:56:20;99304.94;;;20.57;55.33
8039;BME280;4062;49.844;8.120;2022-08-03T03:58:21;99300.50;;;20.56;54.89
8039;BME280;4062;49.844;8.120;2022-08-03T04:00:22;99304.94;;;20.57;55.38
8039;BME280;4062;49.844;8.120;2022-08-03T04:02:23;99310.28;;;20.57;55.44
8039;BME280;4062;49.844;8.120;2022-08-03T04:04:24;99307.59;;;20.57;55.46
8039;BME280;4062;49.844;8.120;2022-08-03T04:06:43;99304.94;;;20.57;55.37
8039;BME280;4062;49.844;8.120;2022-08-03T04:09:03;99309.44;;;20.56;55.37
8039;BME280;4062;49.844;8.120;2022-08-03T04:11:30;99309.44;;;20.56;54.92
8039;BME280;4062;49.844;8.120;2022-08-03T04:13:43;99305.88;;;20.56;55.22
8039;BME280;4062;49.844;8.120;2022-08-03T04:15:47;99304.94;;;20.57;54.99
8039;BME280;4062;49.844;8.120;2022-08-03T04:17:48;99310.28;;;20.57;55.32
8039;BME280;4062;49.844;8.120;2022-08-03T04:19:52;99312.13;;;20.56;55.08
8039;BME280;4062;49.844;8.120;2022-08-03T04:21:59;99307.59;;;20.57;55.21
8039;BME280;4062;49.844;8.120;2022-08-03T04:24:03;99307.72;;;20.55;55.27
8039;BME280;4062;49.844;8.120;2022-08-03T04:26:10;99308.56;;;20.56;55.26
8039;BME280;4062;49.844;8.120;2022-08-03T04:28:12;99308.56;;;20.56;55.28
8039;BME280;4062;49.844;8.120;2022-08-03T04:30:15;99305.03;;;20.55;55.27
8039;BME280;4062;49.844;8.120;2022-08-03T04:32:16;99305.88;;;20.56;55.02
8039;BME280;4062;49.844;8.120;2022-08-03T04:34:17;99305.88;;;20.56;55.38
8039;BME280;4062;49.844;8.120;2022-08-03T04:36:25;99309.44;;;20.56;55.27
8039;BME280;4062;49.844;8.120;2022-08-03T04:38:30;99311.25;;;20.56;55.20
8039;BME280;4062;49.844;8.120;2022-08-03T04:40:34;99318.47;;;20.55;55.03
8039;BME280;4062;49.844;8.120;2022-08-03T04:42:36;99319.31;;;20.56;55.31
8039;BME280;4062;49.844;8.120;2022-08-03T04:44:41;99315.78;;;20.55;55.13
8039;BME280;4062;49.844;8.120;2022-08-03T04:46:43;99315.78;;;20.55;55.35
8039;BME280;4062;49.844;8.120;2022-08-03T04:48:44;99322.00;;;20.56;55.28
8039;BME280;4062;49.844;8.120;2022-08-03T04:50:46;99319.31;;;20.56;55.32
8039;BME280;4062;49.844;8.120;2022-08-03T04:52:47;99325.56;;;20.56;55.45
8039;BME280;4062;49.844;8.120;2022-08-03T04:54:48;99325.56;;;20.56;55.42
8039;BME280;4062;49.844;8.120;2022-08-03T04:56:49;99323.81;;;20.55;55.06
8039;BME280;4062;49.844;8.120;2022-08-03T04:58:50;99329.19;;;20.55;55.25
8039;BME280;4062;49.844;8.120;2022-08-03T05:00:50;99324.66;;;20.56;55.38
8039;BME280;4062;49.844;8.120;2022-08-03T05:02:51;99328.22;;;20.56;55.30
8039;BME280;4062;49.844;8.120;2022-08-03T05:04:53;99328.22;;;20.56;55.04
8039;BME280;4062;49.844;8.120;2022-08-03T05:06:53;99330.91;;;20.56;55.20
8039;BME280;4062;49.844;8.120;2022-08-03T05:08:54;99328.22;;;20.56;55.07
8039;BME280;4062;49.844;8.120;2022-08-03T05:10:56;99335.41;;;20.56;55.27
8039;BME280;4062;49.844;8.120;2022-08-03T05:12:56;99329.19;;;20.55;55.32
8039;BME280;4062;49.844;8.120;2022-08-03T05:14:57;99333.59;;;20.56;55.21
8039;BME280;4062;49.844;8.120;2022-08-03T05:16:58;99338.97;;;20.56;55.25
8039;BME280;4062;49.844;8.120;2022-08-03T05:18:58;99332.72;;;20.56;55.27
8039;BME280;4062;49.844;8.120;2022-08-03T05:20:59;99335.41;;;20.56;55.12
8039;BME280;4062;49.844;8.120;2022-08-03T05:23:00;99330.03;;;20.56;55.26
8039;BME280;4062;49.844;8.120;2022-08-03T05:25:03;99333.59;;;20.56;55.24
8039;BME280;4062;49.844;8.120;2022-08-03T05:27:04;99340.78;;;20.56;55.15
8039;BME280;4062;49.844;8.120;2022-08-03T05:29:05;99331.75;;;20.57;54.94
8039;BME280;4062;49.844;8.120;2022-08-03T05:31:06;99339.94;;;20.55;55.20
8039;BME280;4062;49.844;8.120;2022-08-03T05:33:07;99341.66;;;20.56;55.44
8039;BME280;4062;49.844;8.120;2022-08-03T05:35:08;99355.91;;;20.57;55.37
8039;BME280;4062;49.844;8.120;2022-08-03T05:37:10;99351.50;;;20.56;55.28
8039;BME280;4062;49.844;8.120;2022-08-03T05:39:11;99349.78;;;20.55;54.95
8039;BME280;4062;49.844;8.120;2022-08-03T05:41:11;99342.63;;;20.55;55.07
8039;BME280;4062;49.844;8.120;2022-08-03T05:43:12;99349.72;;;20.56;55.08
8039;BME280;4062;49.844;8.120;2022-08-03T05:45:13;99354.19;;;20.56;54.74
8039;BME280;4062;49.844;8.120;2022-08-03T05:47:20;99354.19;;;20.56;54.80
8039;BME280;4062;49.844;8.120;2022-08-03T05:49:20;99353.34;;;20.55;55.00
8039;BME280;4062;49.844;8.120;2022-08-03T05:51:21;99351.50;;;20.56;55.19
8039;BME280;4062;49.844;8.120;2022-08-03T05:53:22;99352.38;;;20.56;55.12
8039;BME280;4062;49.844;8.120;2022-08-03T05:55:22;99351.50;;;20.56;55.27
8039;BME280;4062;49.844;8.120;2022-08-03T05:57:24;99351.50;;;20.56;55.02
8039;BME280;4062;49.844;8.120;2022-08-03T05:59:25;99350.66;;;20.55;55.15
8039;BME280;4062;49.844;8.120;2022-08-03T06:01:26;99351.50;;;20.56;55.13
8039;BME280;4062;49.844;8.120;2022-08-03T06:03:27;99346.16;;;20.56;55.49
8039;BME280;4062;49.844;8.120;2022-08-03T06:05:28;99358.72;;;20.55;55.28
8039;BME280;4062;49.844;8.120;2022-08-03T06:07:28;99350.66;;;20.55;55.13
8039;BME280;4062;49.844;8.120;2022-08-03T06:09:29;99350.66;;;20.55;55.02
8039;BME280;4062;49.844;8.120;2022-08-03T06:11:30;99345.28;;;20.55;55.29
8039;BME280;4062;49.844;8.120;2022-08-03T06:13:31;99353.34;;;20.55;55.01
8039;BME280;4062;49.844;8.120;2022-08-03T06:15:31;99353.22;;;20.57;54.98
8039;BME280;4062;49.844;8.120;2022-08-03T06:17:44;99347.03;;;20.56;55.34
8039;BME280;4062;49.844;8.120;2022-08-03T06:19:46;99346.16;;;20.56;55.12
8039;BME280;4062;49.844;8.120;2022-08-03T06:21:46;99349.72;;;20.56;55.29
8039;BME280;4062;49.844;8.120;2022-08-03T06:23:47;99342.63;;;20.55;55.32
8039;BME280;4062;49.844;8.120;2022-08-03T06:25:48;99347.03;;;20.56;55.26
8039;BME280;4062;49.844;8.120;2022-08-03T06:27:48;99350.66;;;20.55;55.00
8039;BME280;4062;49.844;8.120;2022-08-03T06:29:49;99346.16;;;20.56;55.32
8039;BME280;4062;49.844;8.120;2022-08-03T06:31:50;99348.81;;;20.56;55.09
8039;BME280;4062;49.844;8.120;2022-08-03T06:33:51;99353.34;;;20.55;55.09
8039;BME280;4062;49.844;8.120;2022-08-03T06:35:51;99347.03;;;20.56;55.23
8039;BME280;4062;49.844;8.120;2022-08-03T06:37:53;99347.97;;;20.55;55.07
8039;BME280;4062;49.844;8.120;2022-08-03T06:39:54;99354.19;;;20.56;55.12
8039;BME280;4062;49.844;8.120;2022-08-03T06:41:55;99343.47;;;20.56;55.30
8039;BME280;4062;49.844;8.120;2022-08-03T06:43:55;99345.28;;;20.55;55.15
8039;BME280;4062;49.844;8.120;2022-08-03T06:45:56;99347.03;;;20.56;55.27
8039;BME280;4062;49.844;8.120;2022-08-03T06:48:09;99344.34;;;20.56;54.95
8039;BME280;4062;49.844;8.120;2022-08-03T06:50:10;99351.50;;;20.56;55.01
8039;BME280;4062;49.844;8.120;2022-08-03T06:52:10;99351.50;;;20.56;55.00
8039;BME280;4062;49.844;8.120;2022-08-03T06:54:11;99344.34;;;20.56;55.18
8039;BME280;4062;49.844;8.120;2022-08-03T06:56:12;99342.50;;;20.57;54.94
8039;BME280;4062;49.844;8.120;2022-08-03T06:58:13;99339.81;;;20.57;55.27
8039;BME280;4062;49.844;8.120;2022-08-03T07:00:14;99338.97;;;20.56;55.13
8039;BME280;4062;49.844;8.120;2022-08-03T07:02:15;99347.75;;;20.58;54.91
8039;BME280;4062;49.844;8.120;2022-08-03T07:04:17;99350.44;;;20.58;55.04
8039;BME280;4062;49.844;8.120;2022-08-03T07:06:18;99351.31;;;20.59;54.80
8039;BME280;4062;49.844;8.120;2022-08-03T07:08:19;99347.75;;;20.58;55.30
8039;BME280;4062;49.844;8.120;2022-08-03T07:10:20;99351.31;;;20.59;55.29
8039;BME280;4062;49.844;8.120;2022-08-03T07:12:20;99356.69;;;20.59;55.23
8039;BME280;4062;49.844;8.120;2022-08-03T07:14:21;99361.09;;;20.60;54.79
8039;BME280;4062;49.844;8.120;2022-08-03T07:16:22;99361.94;;;20.60;54.87
8039;BME280;4062;49.844;8.120;2022-08-03T07:18:23;99361.94;;;20.60;55.17
8039;BME280;4062;49.844;8.120;2022-08-03T07:20:23;99359.25;;;20.60;55.11
8039;BME280;4062;49.844;8.120;2022-08-03T07:22:24;99352.94;;;20.61;55.08
8039;BME280;4062;49.844;8.120;2022-08-03T07:24:25;99361.94;;;20.60;54.81
8039;BME280;4062;49.844;8.120;2022-08-03T07:26:26;99365.50;;;20.61;54.67
8039;BME280;4062;49.844;8.120;2022-08-03T07:28:26;99362.81;;;20.61;55.02
8039;BME280;4062;49.844;8.120;2022-08-03T07:30:27;99363.66;;;20.61;54.91
8039;BME280;4062;49.844;8.120;2022-08-03T07:32:28;99367.19;;;20.62;55.20
8039;BME280;4062;49.844;8.120;2022-08-03T07:34:30;99365.41;;;20.62;54.89
8039;BME280;4062;49.844;8.120;2022-08-03T07:36:31;99366.25;;;20.63;54.96
8039;BME280;4062;49.844;8.120;2022-08-03T07:38:34;99365.41;;;20.62;54.74
8039;BME280;4062;49.844;8.120;2022-08-03T07:40:36;99367.97;;;20.64;55.03
8039;BME280;4062;49.844;8.120;2022-08-03T07:42:37;99372.50;;;20.64;55.23
8039;BME280;4062;49.844;8.120;2022-08-03T07:44:37;99359.91;;;20.64;54.94
8039;BME280;4062;49.844;8.120;2022-08-03T07:46:38;99366.16;;;20.65;54.90
8039;BME280;4062;49.844;8.120;2022-08-03T07:48:39;99358.09;;;20.65;54.75
8039;BME280;4062;49.844;8.120;2022-08-03T07:50:40;99372.38;;;20.65;54.83
8039;BME280;4062;49.844;8.120;2022-08-03T07:52:41;99369.56;;;20.67;54.75
8039;BME280;4062;49.844;8.120;2022-08-03T07:54:48;99363.25;;;20.68;54.71
8039;BME280;4062;49.844;8.120;2022-08-03T07:56:49;99362.28;;;20.69;55.21
8039;BME280;4062;49.844;8.120;2022-08-03T07:58:51;99363.16;;;20.69;54.81
8039;BME280;4062;49.844;8.120;2022-08-03T08:00:52;99362.28;;;20.69;55.03
8039;BME280;4062;49.844;8.120;2022-08-03T08:02:52;99361.34;;;20.70;54.72
8039;BME280;4062;49.844;8.120;2022-08-03T08:04:53;99359.50;;;20.70;54.74
8039;BME280;4062;49.844;8.120;2022-08-03T08:06:54;99361.22;;;20.71;54.55
8039;BME280;4062;49.844;8.120;2022-08-03T08:08:55;99361.22;;;20.71;54.81
8039;BME280;4062;49.844;8.120;2022-08-03T08:10:59;99356.72;;;20.72;54.87
8039;BME280;4062;49.844;8.120;2022-08-03T08:13:00;99356.72;;;20.72;54.87
8039;BME280;4062;49.844;8.120;2022-08-03T08:15:02;99351.34;;;20.72;54.86
8039;BME280;4062;49.844;8.120;2022-08-03T08:17:03;99356.72;;;20.72;54.80
8039;BME280;4062;49.844;8.120;2022-08-03T08:19:03;99349.53;;;20.72;54.90
8039;BME280;4062;49.844;8.120;2022-08-03T08:21:04;99355.78;;;20.73;54.80
8039;BME280;4062;49.844;8.120;2022-08-03T08:23:07;99353.09;;;20.73;54.64
8039;BME280;4062;49.844;8.120;2022-08-03T08:25:08;99351.28;;;20.73;54.67
8039;BME280;4062;49.844;8.120;2022-08-03T08:27:09;99353.09;;;20.73;54.97
8039;BME280;4062;49.844;8.120;2022-08-03T08:29:11;99350.41;;;20.73;54.65
8039;BME280;4062;49.844;8.120;2022-08-03T08:31:12;99347.72;;;20.73;54.72
8039;BME280;4062;49.844;8.120;2022-08-03T08:33:13;99348.59;;;20.73;54.75
8039;BME280;4062;49.844;8.120;2022-08-03T08:35:14;99342.34;;;20.73;55.01
8039;BME280;4062;49.844;8.120;2022-08-03T08:37:15;99346.78;;;20.74;54.78
8039;BME280;4062;49.844;8.120;2022-08-03T08:39:16;99344.09;;;20.74;54.64
8039;BME280;4062;49.844;8.120;2022-08-03T08:41:17;99349.47;;;20.74;54.86
8039;BME280;4062;49.844;8.120;2022-08-03T08:43:17;99342.25;;;20.74;54.75
8039;BME280;4062;49.844;8.120;2022-08-03T08:45:18;99344.09;;;20.74;54.60
8039;BME280;4062;49.844;8.120;2022-08-03T08:47:28;99344.94;;;20.74;55.01
8039;BME280;4062;49.844;8.120;2022-08-03T08:49:30;99338.72;;;20.74;54.89
8039;BME280;4062;49.844;8.120;2022-08-03T08:51:33;99338.72;;;20.74;55.00
8039;BME280;4062;49.844;8.120;2022-08-03T08:53:40;99340.41;;;20.75;54.72
8039;BME280;4062;49.844;8.120;2022-08-03T08:55:45;99335.06;;;20.75;54.84
8039;BME280;4062;49.844;8.120;2022-08-03T08:58:10;99328.84;;;20.74;54.89
8039;BME280;4062;49.844;8.120;2022-08-03T09:00:13;99338.63;;;20.75;54.76
8039;BME280;4062;49.844;8.120;2022-08-03T09:02:14;99334.22;;;20.74;55.04
8039;BME280;4062;49.844;8.120;2022-08-03T09:04:14;99333.25;;;20.75;54.76
8039;BME280;4062;49.844;8.120;2022-08-03T09:06:15;99334.22;;;20.74;54.91
8039;BME280;4062;49.844;8.120;2022-08-03T09:08:17;99334.22;;;20.74;54.95
8039;BME280;4062;49.844;8.120;2022-08-03T09:10:18;99338.72;;;20.74;54.78
8039;BME280;4062;49.844;8.120;2022-08-03T09:12:21;99330.69;;;20.74;54.96
8039;BME280;4062;49.844;8.120;2022-08-03T09:14:22;99338.72;;;20.74;54.84
8039;BME280;4062;49.844;8.120;2022-08-03T09:16:23;99345.03;;;20.73;55.09
8039;BME280;4062;49.844;8.120;2022-08-03T09:18:29;99334.28;;;20.73;54.77
8039;BME280;4062;49.844;8.120;2022-08-03T09:20:33;99328.91;;;20.73;55.00
8039;BME280;4062;49.844;8.120;2022-08-03T09:22:34;99331.59;;;20.73;54.79
8039;BME280;4062;49.844;8.120;2022-08-03T09:24:36;99331.59;;;20.73;54.72
8039;BME280;4062;49.844;8.120;2022-08-03T09:26:37;99337.84;;;20.73;54.63
8039;BME280;4062;49.844;8.120;2022-08-03T09:28:38;99335.16;;;20.73;54.96
8039;BME280;4062;49.844;8.120;2022-08-03T09:30:44;99328.00;;;20.74;54.98
8039;BME280;4062;49.844;8.120;2022-08-03T09:33:09;99332.38;;;20.75;54.91
8039;BME280;4062;49.844;8.120;2022-08-03T09:35:11;99337.75;;;20.75;54.76
8039;BME280;4062;49.844;8.120;2022-08-03T09:37:17;99334.09;;;20.76;54.70
8039;BME280;4062;49.844;8.120;2022-08-03T09:39:21;99333.13;;;20.77;54.82
8039;BME280;4062;49.844;8.120;2022-08-03T09:41:22;99333.13;;;20.77;55.04
8039;BME280;4062;49.844;8.120;2022-08-03T09:43:22;99338.50;;;20.77;54.49
8039;BME280;4062;49.844;8.120;2022-08-03T09:45:26;99326.81;;;20.78;54.92
8039;BME280;4062;49.844;8.120;2022-08-03T09:47:29;99329.47;;;20.78;54.93
8039;BME280;4062;49.844;8.120;2022-08-03T09:49:31;99329.47;;;20.78;54.71
8039;BME280;4062;49.844;8.120;2022-08-03T09:51:32;99326.81;;;20.78;54.88
8039;BME280;4062;49.844;8.120;2022-08-03T09:53:44;99331.22;;;20.79;54.90
8039;BME280;4062;49.844;8.120;2022-08-03T09:55:58;99328.53;;;20.79;54.65
8039;BME280;4062;49.844;8.120;2022-08-03T09:58:06;99325.84;;;20.79;54.72
8039;BME280;4062;49.844;8.120;2022-08-03T10:00:11;99333.06;;;20.79;54.79
8039;BME280;4062;49.844;8.120;2022-08-03T10:02:26;99329.47;;;20.78;54.86
8039;BME280;4062;49.844;8.120;2022-08-03T10:04:27;99325.94;;;20.77;54.91
8039;BME280;4062;49.844;8.120;2022-08-03T10:06:28;99328.63;;;20.77;54.86
8039;BME280;4062;49.844;8.120;2022-08-03T10:08:29;99326.81;;;20.78;54.74
8039;BME280;4062;49.844;8.120;2022-08-03T10:10:42;99319.72;;;20.77;54.76
8039;BME280;4062;49.844;8.120;2022-08-03T10:14:46;99317.91;;;20.77;55.04
8039;BME280;4062;49.844;8.120;2022-08-03T10:16:48;99310.69;;;20.78;54.64
8039;BME280;4062;49.844;8.120;2022-08-03T10:18:49;99315.09;;;20.79;54.67
8039;BME280;4062;49.844;8.120;2022-08-03T10:20:52;99308.00;;;20.78;54.50
8039;BME280;4062;49.844;8.120;2022-08-03T10:22:55;99301.69;;;20.79;55.00
8039;BME280;4062;49.844;8.120;2022-08-03T10:25:06;99302.63;;;20.78;54.85
8039;BME280;4062;49.844;8.120;2022-08-03T10:27:09;99307.91;;;20.80;54.63
8039;BME280;4062;49.844;8.120;2022-08-03T10:29:16;99297.25;;;20.78;54.67
8039;BME280;4062;49.844;8.120;2022-08-03T10:31:19;99304.34;;;20.79;54.75
8039;BME280;4062;49.844;8.120;2022-08-03T10:33:26;99299.84;;;20.80;54.55
8039;BME280;4062;49.844;8.120;2022-08-03T10:35:28;99293.63;;;20.79;54.97
8039;BME280;4062;49.844;8.120;2022-08-03T10:37:33;99283.72;;;20.80;54.91
8039;BME280;4062;49.844;8.120;2022-08-03T10:39:37;99286.41;;;20.80;54.61
8039;BME280;4062;49.844;8.120;2022-08-03T10:41:40;99280.19;;;20.79;54.98
8039;BME280;4062;49.844;8.120;2022-08-03T10:44:22;99283.72;;;20.80;54.48
8039;BME280;4062;49.844;8.120;2022-08-03T10:46:24;99285.44;;;20.81;54.60
8039;BME280;4062;49.844;8.120;2022-08-03T10:48:26;99279.25;;;20.80;54.60
8039;BME280;4062;49.844;8.120;2022-08-03T10:50:27;99268.50;;;20.80;54.72
8039;BME280;4062;49.844;8.120;2022-08-03T10:52:28;99265.81;;;20.80;54.59
8039;BME280;4062;49.844;8.120;2022-08-03T10:54:40;99268.50;;;20.80;54.59
8039;BME280;4062;49.844;8.120;2022-08-03T10:57:02;99271.19;;;20.80;54.49
8039;BME280;4062;49.844;8.120;2022-08-03T11:01:55;99259.56;;;20.80;54.79
8039;BME280;4062;49.844;8.120;2022-08-03T11:06:18;99260.44;;;20.80;54.88
8039;BME280;4062;49.844;8.120;2022-08-03T11:08:27;99260.44;;;20.80;54.71
8039;BME280;4062;49.844;8.120;2022-08-03T11:10:30;99259.56;;;20.80;54.80
8039;BME280;4062;49.844;8.120;2022-08-03T11:12:32;99265.94;;;20.79;54.64
8039;BME280;4062;49.844;8.120;2022-08-03T11:14:46;99259.56;;;20.80;54.47
8039;BME280;4062;49.844;8.120;2022-08-03T11:17:07;99261.41;;;20.79;54.90
8039;BME280;4062;49.844;8.120;2022-08-03T11:19:16;99259.56;;;20.80;54.91
8039;BME280;4062;49.844;8.120;2022-08-03T11:21:17;99257.75;;;20.80;54.88
8039;BME280;4062;49.844;8.120;2022-08-03T11:26:18;99249.81;;;20.79;54.68
8039;BME280;4062;49.844;8.120;2022-08-03T11:28:27;99250.78;;;20.77;54.43